Time;durP1;ratioP1;P1;durP2;ratioP2;P2;SDS_P1;SDS_P2;PMS_P1;PMS_P2;Temp;Humidity;BMP_temperature;BMP_pressure;BME280_temperature;BME280_humidity;BME280_pressure;Samples;Min_cycle;Max_cycle;Signal;HPM_P1;HPM_P2
2023/05/24 00:00:12;;;;;;;56.55;28.17;;;;;;;10.83;100.00;93207.44;2598717;22;20006;-79
2023/05/24 00:01:13;;;;;;;57.40;28.20;;;;;;;10.78;100.00;93209.84;2609106;22;20475;-78
2023/05/24 00:02:14;;;;;;;52.63;26.40;;;;;;;10.79;100.00;93214.78;2598873;22;20007;-79
2023/05/24 00:03:17;;;;;;;51.50;27.60;;;;;;;10.81;100.00;93215.13;2588927;22;20006;-79
2023/05/24 00:04:18;;;;;;;63.85;27.80;;;;;;;10.84;100.00;93210.84;2602450;22;20025;-77
2023/05/24 00:05:19;;;;;;;55.90;27.23;;;;;;;10.81;100.00;93209.03;2598287;22;20035;-78
2023/05/24 00:06:20;;;;;;;50.47;28.30;;;;;;;10.79;100.00;93212.09;2609215;22;20010;-79
2023/05/24 00:07:22;;;;;;;54.50;26.77;;;;;;;10.87;100.00;93204.69;2595305;22;20007;-78
2023/05/24 00:08:23;;;;;;;47.78;26.50;;;;;;;10.99;100.00;93200.63;2583326;22;20007;-78
2023/05/24 00:09:24;;;;;;;58.80;29.15;;;;;;;10.91;100.00;93183.97;2595482;22;20007;-77
2023/05/24 00:10:25;;;;;;;48.55;26.17;;;;;;;10.91;100.00;93197.34;2595804;22;20011;-80
2023/05/24 00:11:26;;;;;;;48.47;26.88;;;;;;;10.87;100.00;93195.91;2594799;22;19999;-78
2023/05/24 00:12:27;;;;;;;54.17;27.25;;;;;;;10.77;100.00;93203.75;2582165;22;20008;-82
2023/05/24 00:13:28;;;;;;;52.80;26.60;;;;;;;10.99;100.00;93195.28;2570552;22;20020;-79
2023/05/24 00:14:29;;;;;;;51.45;27.77;;;;;;;10.89;100.00;93194.34;2595775;22;20014;-79
2023/05/24 00:15:30;;;;;;;55.53;27.67;;;;;;;10.90;100.00;93195.84;2607778;22;20053;-78
2023/05/24 00:16:31;;;;;;;55.38;27.58;;;;;;;10.81;100.00;93199.06;2595335;22;20418;-79
2023/05/24 00:17:33;;;;;;;49.45;27.40;;;;;;;10.79;100.00;93197.97;2595301;22;20011;-80
2023/05/24 00:18:39;;;;;;;50.83;27.15;;;;;;;10.77;100.00;93194.97;2607914;22;20069;-79
2023/05/24 00:19:43;;;;;;;52.03;27.25;;;;;;;10.77;100.00;93197.66;2607283;22;20026;-78
2023/05/24 00:20:44;;;;;;;56.28;27.38;;;;;;;10.83;100.00;93198.66;2607863;22;20448;-80
2023/05/24 00:21:45;;;;;;;54.42;27.35;;;;;;;10.86;100.00;93197.84;2594436;22;20433;-78
2023/05/24 00:22:46;;;;;;;52.95;27.25;;;;;;;10.76;100.00;93194.22;2594895;22;20000;-80
2023/05/24 00:23:47;;;;;;;54.70;27.90;;;;;;;10.75;100.00;93192.69;2608251;22;20049;-80
2023/05/24 00:24:48;;;;;;;52.90;27.83;;;;;;;10.77;100.00;93192.31;2594471;22;20022;-81
2023/05/24 00:25:55;;;;;;;58.33;28.20;;;;;;;10.79;100.00;93184.59;2569533;22;20001;-79
2023/05/24 00:26:57;;;;;;;52.58;25.92;;;;;;;10.83;100.00;93187.97;2584759;22;20706;-80
2023/05/24 00:27:58;;;;;;;57.95;28.33;;;;;;;10.76;100.00;93188.88;2594830;22;20004;-77
2023/05/24 00:29:01;;;;;;;48.63;27.02;;;;;;;10.79;100.00;93187.28;2595042;22;20019;-80
2023/05/24 00:30:04;;;;;;;48.78;25.83;;;;;;;10.86;100.00;93189.06;2582298;22;20008;-78
2023/05/24 00:31:07;;;;;;;52.13;26.83;;;;;;;10.79;100.00;93187.28;2594449;22;20018;-81
2023/05/24 00:32:08;;;;;;;51.45;26.90;;;;;;;10.71;100.00;93186.69;2570572;22;19988;-82
2023/05/24 00:33:09;;;;;;;47.95;26.15;;;;;;;10.70;100.00;93187.84;2569648;22;20031;-79
2023/05/24 00:34:10;;;;;;;48.42;26.55;;;;;;;10.73;100.00;93187.03;2581695;22;20519;-79
2023/05/24 00:35:11;;;;;;;52.35;26.63;;;;;;;10.76;100.00;93190.81;2594339;22;20011;-79
2023/05/24 00:36:11;;;;;;;45.58;25.80;;;;;;;10.78;100.00;93191.13;2582346;22;20484;-76
2023/05/24 00:37:13;;;;;;;50.13;26.85;;;;;;;10.79;100.00;93188.03;2569112;22;20020;-79
2023/05/24 00:38:14;;;;;;;45.22;25.13;;;;;;;10.75;100.00;93187.34;2569685;22;20059;-80
2023/05/24 00:39:15;;;;;;;52.50;26.65;;;;;;;10.75;100.00;93192.69;2581239;23;20349;-79
2023/05/24 00:40:16;;;;;;;45.42;25.92;;;;;;;10.83;100.00;93182.63;2594511;22;20410;-79
2023/05/24 00:41:17;;;;;;;46.55;25.00;;;;;;;10.81;100.00;93196.41;2595814;22;20050;-79
2023/05/24 00:42:18;;;;;;;49.22;26.58;;;;;;;10.76;100.00;93188.88;2583496;22;20015;-79
2023/05/24 00:43:19;;;;;;;50.38;26.30;;;;;;;10.73;100.00;93187.03;2583425;22;20000;-78
2023/05/24 00:44:21;;;;;;;50.45;24.20;;;;;;;10.70;100.00;93185.16;2583047;22;20007;-80
2023/05/24 00:45:24;;;;;;;49.58;25.70;;;;;;;10.70;100.00;93187.09;2594885;22;20022;-77
2023/05/24 00:46:31;;;;;;;44.88;25.67;;;;;;;10.60;100.00;93180.81;2607782;22;20003;-81
2023/05/24 00:47:32;;;;;;;48.75;25.65;;;;;;;10.61;100.00;93181.56;2608202;22;20003;-82
2023/05/24 00:48:34;;;;;;;48.08;24.30;;;;;;;10.76;100.00;93178.19;2607860;22;20302;-78
2023/05/24 00:49:37;;;;;;;47.78;26.15;;;;;;;10.62;100.00;93183.81;2595113;22;20078;-78
2023/05/24 00:50:40;;;;;;;44.92;24.30;;;;;;;10.55;100.00;93183.97;2583008;22;20050;-79
2023/05/24 00:51:41;;;;;;;42.03;23.27;;;;;;;10.55;100.00;93184.72;2607308;22;20033;-78
2023/05/24 00:52:42;;;;;;;46.00;25.00;;;;;;;10.64;100.00;93188.75;2594347;22;19999;-77
2023/05/24 00:53:45;;;;;;;48.63;25.38;;;;;;;10.81;100.00;93175.00;2569949;22;20019;-79
2023/05/24 00:54:47;;;;;;;39.22;23.50;;;;;;;10.64;100.00;93178.81;2569919;22;20001;-80
2023/05/24 00:55:48;;;;;;;44.60;23.67;;;;;;;10.72;100.00;93177.50;2594433;22;20007;-79
2023/05/24 00:56:49;;;;;;;42.97;23.73;;;;;;;10.75;100.00;93175.91;2606697;22;20000;-78
2023/05/24 00:57:51;;;;;;;38.47;23.70;;;;;;;10.74;100.00;93179.75;2607124;22;20303;-80
2023/05/24 00:58:56;;;;;;;41.47;23.50;;;;;;;10.73;100.00;93176.34;2606942;22;20003;-78
2023/05/24 01:00:07;;;;;;;37.40;23.10;;;;;;;10.76;100.00;93174.75;2607487;22;20061;-79
2023/05/24 01:01:08;;;;;;;38.50;23.92;;;;;;;10.70;100.00;93187.09;2606406;22;20003;-79
2023/05/24 01:02:09;;;;;;;40.60;23.13;;;;;;;10.59;100.00;93182.72;2581514;22;20007;-78
2023/05/24 01:03:10;;;;;;;45.30;23.90;;;;;;;10.59;100.00;93180.06;2594549;22;20422;-79
2023/05/24 01:04:12;;;;;;;43.15;22.25;;;;;;;10.57;100.00;93171.69;2607247;22;20006;-80
2023/05/24 01:05:16;;;;;;;43.25;23.48;;;;;;;10.49;100.00;93185.59;2595222;22;20065;-79
2023/05/24 01:06:17;;;;;;;47.13;23.02;;;;;;;10.42;100.00;93181.19;2582752;22;20007;-79
2023/05/24 01:07:44;;;;;;;39.30;22.27;;;;;;;10.42;100.00;93177.75;2582424;22;20015;-81
2023/05/24 01:09:00;;;;;;;43.60;22.52;;;;;;;10.32;100.00;93185.56;2600928;22;20023;-80
2023/05/24 01:10:26;;;;;;;37.25;20.75;;;;;;;10.42;100.00;93185.78;2608256;22;20523;-78
2023/05/24 01:12:02;;;;;;;41.83;21.25;;;;;;;10.45;100.00;93179.59;2595065;22;20025;-77
2023/05/24 01:13:20;;;;;;;35.83;19.98;;;;;;;10.60;100.00;93186.16;2584509;22;20395;-79
2023/05/24 01:14:49;;;;;;;41.13;21.27;;;;;;;10.53;100.00;93181.69;2577002;22;20012;-79
2023/05/24 01:16:04;;;;;;;39.22;21.80;;;;;;;10.54;100.00;93185.16;2593603;22;20007;-78
2023/05/24 01:17:30;;;;;;;35.65;20.27;;;;;;;10.57;100.00;93182.38;2608131;22;20545;-81
2023/05/24 01:18:34;;;;;;;35.85;20.38;;;;;;;10.45;100.00;93184.94;2608564;22;20017;-79
2023/05/24 01:19:48;;;;;;;35.22;20.73;;;;;;;10.49;100.00;93181.03;2594851;22;20003;-80
2023/05/24 01:20:57;;;;;;;33.50;20.30;;;;;;;10.36;100.00;93182.84;2598147;22;20004;-80
2023/05/24 01:22:16;;;;;;;35.92;19.85;;;;;;;10.33;100.00;93183.66;2596804;22;20349;-79
2023/05/24 01:23:35;;;;;;;37.50;19.80;;;;;;;10.34;100.00;93180.56;2608130;22;20014;-80
2023/05/24 01:24:52;;;;;;;30.15;19.20;;;;;;;10.42;100.00;93183.09;2608615;22;20021;-77
2023/05/24 01:26:21;;;;;;;33.35;18.80;;;;;;;10.38;100.00;93175.16;2594629;22;20106;-77
2023/05/24 01:27:23;;;;;;;28.60;18.05;;;;;;;10.41;100.00;93179.69;2581024;22;20050;-77
2023/05/24 01:28:26;;;;;;;31.13;18.75;;;;;;;10.48;100.00;93184.84;2582726;22;20004;-80
2023/05/24 01:29:28;;;;;;;30.15;18.35;;;;;;;10.48;100.00;93181.44;2594672;22;20429;-77
2023/05/24 01:30:29;;;;;;;28.63;18.65;;;;;;;10.37;100.00;93179.00;2594579;22;20007;-79
2023/05/24 01:31:32;;;;;;;30.08;19.33;;;;;;;10.25;100.00;93185.69;2594064;22;20019;-80
2023/05/24 01:32:33;;;;;;;29.73;19.70;;;;;;;10.15;100.00;93178.63;2595171;22;20007;-76
2023/05/24 01:33:39;;;;;;;27.73;19.00;;;;;;;10.21;100.00;93176.22;2595144;22;20465;-79
2023/05/24 01:34:40;;;;;;;32.50;18.60;;;;;;;10.28;100.00;93178.78;2607134;22;19999;-79
2023/05/24 01:35:41;;;;;;;31.17;18.63;;;;;;;10.36;100.00;93182.84;2594508;22;20054;-79
2023/05/24 01:36:43;;;;;;;30.25;19.35;;;;;;;10.30;100.00;93181.78;2582236;22;20000;-78
2023/05/24 01:37:44;;;;;;;26.25;18.42;;;;;;;10.23;100.00;93181.91;2582007;22;20012;-79
2023/05/24 01:38:45;;;;;;;29.60;18.55;;;;;;;10.23;100.00;93184.59;2569216;23;20009;-78
2023/05/24 01:39:47;;;;;;;28.40;18.08;;;;;;;10.40;100.00;93177.41;2581163;22;20015;-79
2023/05/24 01:40:53;;;;;;;29.10;17.67;;;;;;;10.30;100.00;93179.13;2593647;22;20577;-81
2023/05/24 01:42:23;;;;;;;26.73;17.20;;;;;;;10.28;100.00;93184.88;2607105;22;20323;-78
2023/05/24 01:43:36;;;;;;;32.47;18.08;;;;;;;10.34;100.00;93180.56;2606934;22;20003;-78
2023/05/24 01:44:54;;;;;;;26.52;17.55;;;;;;;10.16;100.00;93176.72;2584297;22;20027;-80
2023/05/24 01:46:21;;;;;;;26.60;16.80;;;;;;;10.25;100.00;93185.69;2588900;22;20349;-80
2023/05/24 01:47:54;;;;;;;25.65;16.83;;;;;;;10.27;100.00;93172.69;2594292;22;20012;-81
2023/05/24 01:49:02;;;;;;;23.98;16.95;;;;;;;10.21;100.00;93176.97;2595442;22;19999;-78
2023/05/24 01:50:34;;;;;;;28.60;17.17;;;;;;;10.39;100.00;93176.66;2595398;22;20014;-80
2023/05/24 01:51:52;;;;;;;25.48;15.98;;;;;;;10.39;100.00;93171.31;2600052;22;19999;-79
2023/05/24 01:52:57;;;;;;;20.60;16.08;;;;;;;10.39;100.00;93168.63;2585292;22;20077;-80
2023/05/24 01:54:00;;;;;;;27.48;16.20;;;;;;;10.33;100.00;93175.63;2570784;22;20001;-81
2023/05/24 01:55:03;;;;;;;25.20;15.45;;;;;;;10.34;100.00;93166.44;2582791;22;20371;-79
2023/05/24 01:56:05;;;;;;;26.73;15.93;;;;;;;10.26;100.00;93165.81;2594398;22;20065;-80
2023/05/24 01:57:09;;;;;;;28.42;15.88;;;;;;;10.28;100.00;93166.19;2594140;22;20118;-79
2023/05/24 01:58:15;;;;;;;24.15;16.60;;;;;;;10.26;100.00;93173.09;2581752;22;20008;-80
2023/05/24 01:59:17;;;;;;;27.52;17.35;;;;;;;10.14;100.00;93173.69;2583892;22;20702;-81
2023/05/24 02:00:20;;;;;;;25.17;16.00;;;;;;;10.18;100.00;93163.69;2594707;22;20004;-81
2023/05/24 02:01:22;;;;;;;23.13;14.75;;;;;;;10.23;100.00;93173.91;2582264;22;20016;-76
2023/05/24 02:02:26;;;;;;;24.45;15.70;;;;;;;10.18;100.00;93169.03;2594984;22;20046;-80
2023/05/24 02:03:30;;;;;;;28.33;16.42;;;;;;;10.23;100.00;93173.91;2607862;22;20002;-79
2023/05/24 02:04:32;;;;;;;25.80;15.98;;;;;;;10.16;100.00;93172.13;2607062;22;20006;-80
2023/05/24 02:05:38;;;;;;;27.40;15.75;;;;;;;10.22;100.00;93173.13;2606486;22;20023;-79
2023/05/24 02:06:40;;;;;;;21.63;15.48;;;;;;;10.16;100.00;93174.03;2607355;22;20097;-80
2023/05/24 02:07:41;;;;;;;20.95;14.73;;;;;;;10.09;100.00;93178.34;2608073;22;20369;-79
2023/05/24 02:08:42;;;;;;;22.08;14.40;;;;;;;10.09;100.00;93181.00;2594392;22;20362;-77
2023/05/24 02:09:43;;;;;;;23.08;15.23;;;;;;;10.09;100.00;93173.00;2581855;22;20031;-79
2023/05/24 02:10:45;;;;;;;28.33;16.27;;;;;;;10.07;100.00;93175.34;2593343;22;20008;-78
2023/05/24 02:11:46;;;;;;;20.27;14.23;;;;;;;10.11;100.00;93171.84;2606695;22;20422;-78
2023/05/24 02:12:47;;;;;;;21.42;14.95;;;;;;;10.08;100.00;93165.41;2606791;22;20003;-80
2023/05/24 02:13:49;;;;;;;22.65;14.93;;;;;;;10.04;100.00;93172.72;2581693;22;20004;-79
2023/05/24 02:14:51;;;;;;;23.60;14.00;;;;;;;10.07;100.00;93167.31;2594849;22;20445;-77
2023/05/24 02:15:52;;;;;;;23.10;15.15;;;;;;;9.95;100.00;93167.91;2606477;22;20022;-80
2023/05/24 02:16:57;;;;;;;23.85;14.77;;;;;;;9.89;100.00;93163.47;2594382;22;20011;-77
2023/05/24 02:18:00;;;;;;;21.65;14.60;;;;;;;9.99;100.00;93168.59;2582776;22;20315;-78
2023/05/24 02:19:13;;;;;;;21.60;14.98;;;;;;;9.92;100.00;93167.97;2582447;22;20027;-80
2023/05/24 02:20:16;;;;;;;22.00;14.45;;;;;;;9.87;100.00;93166.53;2607120;22;20007;-80
2023/05/24 02:21:17;;;;;;;19.85;13.70;;;;;;;9.92;100.00;93159.97;2594137;22;20082;-79
2023/05/24 02:22:21;;;;;;;20.10;14.25;;;;;;;9.92;100.00;93166.09;2581581;22;20019;-80
2023/05/24 02:23:22;;;;;;;22.38;13.35;;;;;;;9.82;100.00;93162.44;2569784;22;20587;-80
2023/05/24 02:24:23;;;;;;;20.27;13.10;;;;;;;9.83;100.00;93150.63;2581633;22;20040;-78
2023/05/24 02:25:24;;;;;;;20.70;12.90;;;;;;;9.90;100.00;93163.06;2581836;22;20008;-79
2023/05/24 02:26:25;;;;;;;18.90;12.80;;;;;;;9.97;100.00;93154.94;2606755;22;20003;-77
2023/05/24 02:27:26;;;;;;;20.15;12.25;;;;;;;9.98;100.00;93159.09;2594280;22;20369;-79
2023/05/24 02:28:31;;;;;;;19.25;12.98;;;;;;;9.94;100.00;93158.41;2581800;23;20562;-77
2023/05/24 02:29:32;;;;;;;17.92;12.85;;;;;;;9.92;100.00;93157.31;2583206;22;20008;-79
2023/05/24 02:30:37;;;;;;;18.25;12.27;;;;;;;9.96;100.00;93163.34;2607092;22;20209;-80
2023/05/24 02:31:38;;;;;;;18.98;12.20;;;;;;;9.95;100.00;93156.50;2607488;22;20007;-76
2023/05/24 02:32:40;;;;;;;20.02;11.63;;;;;;;9.90;100.00;93152.38;2593962;22;20003;-78
2023/05/24 02:33:42;;;;;;;18.88;12.23;;;;;;;9.91;100.00;93155.81;2594612;22;20023;-79
2023/05/24 02:34:44;;;;;;;14.68;11.75;;;;;;;9.98;100.00;93153.00;2607933;22;20075;-79
2023/05/24 02:35:45;;;;;;;17.52;12.82;;;;;;;9.91;100.00;93150.47;2606834;22;20333;-77
2023/05/24 02:36:53;;;;;;;15.73;11.68;;;;;;;9.93;100.00;93145.47;2593939;22;20019;-79
2023/05/24 02:38:01;;;;;;;15.85;11.77;;;;;;;9.96;100.00;93148.06;2594824;22;20429;-78
2023/05/24 02:39:03;;;;;;;15.55;11.48;;;;;;;10.11;100.00;93147.81;2606722;22;20017;-79
2023/05/24 02:40:05;;;;;;;16.35;11.55;;;;;;;10.15;100.00;93143.91;2607089;22;20003;-79
2023/05/24 02:41:08;;;;;;;15.85;11.48;;;;;;;9.97;100.00;93146.16;2594850;22;20075;-80
2023/05/24 02:42:10;;;;;;;16.35;11.48;;;;;;;9.94;100.00;93149.66;2594284;22;20670;-79
2023/05/24 02:43:11;;;;;;;14.25;10.45;;;;;;;9.91;100.00;93148.53;2594988;22;19996;-79
2023/05/24 02:44:12;;;;;;;18.38;11.80;;;;;;;9.86;100.00;93150.94;2594165;22;20015;-80
2023/05/24 02:45:13;;;;;;;15.88;11.57;;;;;;;9.79;100.00;93146.50;2594591;22;20004;-79
2023/05/24 02:46:14;;;;;;;15.18;11.05;;;;;;;9.78;100.00;93144.97;2594489;22;20441;-79
2023/05/24 02:47:15;;;;;;;17.85;11.15;;;;;;;9.86;100.00;93140.25;2581663;22;20000;-78
2023/05/24 02:48:16;;;;;;;15.20;10.90;;;;;;;9.88;100.00;93148.59;2594736;22;20003;-79
2023/05/24 02:49:17;;;;;;;15.57;11.27;;;;;;;9.96;100.00;93150.72;2607356;22;19995;-80
2023/05/24 02:50:18;;;;;;;14.68;10.75;;;;;;;9.94;100.00;93153.06;2606773;22;20010;-78
2023/05/24 02:51:20;;;;;;;15.23;11.27;;;;;;;9.84;100.00;93146.03;2607484;22;20433;-77
2023/05/24 02:52:22;;;;;;;16.83;11.30;;;;;;;9.78;100.00;93147.63;2607212;22;19999;-80
2023/05/24 02:53:23;;;;;;;17.77;11.35;;;;;;;9.80;100.00;93143.41;2607610;22;20002;-78
2023/05/24 02:54:24;;;;;;;19.00;11.25;;;;;;;9.82;100.00;93153.66;2606878;22;20008;-78
2023/05/24 02:55:25;;;;;;;12.15;10.80;;;;;;;9.75;100.00;93157.25;2593094;22;20070;-77
2023/05/24 02:56:27;;;;;;;19.63;10.88;;;;;;;9.72;100.00;93150.03;2581682;22;20004;-80
2023/05/24 02:57:28;;;;;;;16.63;10.98;;;;;;;9.73;100.00;93156.13;2594658;22;20349;-80
2023/05/24 02:58:29;;;;;;;17.95;10.75;;;;;;;9.84;100.00;93154.78;2607989;22;20003;-78
2023/05/24 02:59:31;;;;;;;15.27;10.02;;;;;;;9.75;100.00;93157.25;2594448;22;20043;-81
2023/05/24 03:00:32;;;;;;;17.13;10.30;;;;;;;9.75;100.00;93154.56;2594484;22;20000;-78
2023/05/24 03:01:33;;;;;;;13.35;9.48;;;;;;;9.89;100.00;93152.81;2606311;22;20003;-77
2023/05/24 03:02:37;;;;;;;15.90;10.32;;;;;;;9.76;100.00;93156.06;2607135;22;20003;-80
2023/05/24 03:03:38;;;;;;;16.55;10.45;;;;;;;9.68;100.00;93148.59;2593603;22;20030;-78
2023/05/24 03:04:39;;;;;;;13.15;9.98;;;;;;;9.71;100.00;93145.88;2569061;22;20068;-80
2023/05/24 03:05:40;;;;;;;13.43;9.82;;;;;;;9.59;100.00;93146.47;2581416;22;20000;-79
2023/05/24 03:06:43;;;;;;;16.42;10.98;;;;;;;9.50;100.00;93144.31;2607292;22;20899;-79
2023/05/24 03:07:44;;;;;;;18.98;11.68;;;;;;;9.47;100.00;93147.78;2607248;22;20003;-80
2023/05/24 03:08:45;;;;;;;15.13;10.52;;;;;;;9.40;100.00;93142.59;2607310;22;20078;-79
2023/05/24 03:09:46;;;;;;;17.90;11.68;;;;;;;9.31;100.00;93145.03;2606962;22;19999;-79
2023/05/24 03:10:49;;;;;;;18.52;11.85;;;;;;;9.27;100.00;93149.69;2594491;22;20003;-78
2023/05/24 03:11:51;;;;;;;16.25;11.23;;;;;;;9.41;100.00;93144.09;2594505;22;19996;-80
2023/05/24 03:12:52;;;;;;;19.17;11.95;;;;;;;9.41;100.00;93144.09;2607252;22;20025;-77
2023/05/24 03:13:53;;;;;;;16.83;11.68;;;;;;;9.52;100.00;93143.91;2607209;22;20033;-81
2023/05/24 03:14:54;;;;;;;19.17;12.57;;;;;;;9.46;100.00;93145.53;2606700;22;20003;-78
2023/05/24 03:15:55;;;;;;;17.25;11.55;;;;;;;9.46;100.00;93151.63;2606441;22;20065;-79
2023/05/24 03:16:56;;;;;;;15.77;10.60;;;;;;;9.50;100.00;93154.25;2608229;22;20003;-81
2023/05/24 03:17:57;;;;;;;16.90;11.05;;;;;;;9.52;100.00;93152.66;2608012;22;20023;-80
2023/05/24 03:18:58;;;;;;;16.00;11.23;;;;;;;9.57;100.00;93151.47;2594001;22;19999;-77
2023/05/24 03:20:00;;;;;;;18.23;11.52;;;;;;;9.53;100.00;93151.53;2582219;22;20004;-81
2023/05/24 03:21:01;;;;;;;13.80;10.43;;;;;;;9.54;100.00;93152.28;2581308;22;20031;-78
2023/05/24 03:22:02;;;;;;;14.50;10.13;;;;;;;9.69;100.00;93147.44;2580939;22;20431;-79
2023/05/24 03:23:03;;;;;;;16.17;10.98;;;;;;;9.70;100.00;93147.03;2593265;22;20365;-78
2023/05/24 03:24:05;;;;;;;12.65;10.40;;;;;;;9.68;100.00;93161.94;2594490;22;20310;-78
2023/05/24 03:25:08;;;;;;;16.10;10.30;;;;;;;9.56;100.00;93148.03;2594663;22;20009;-78
2023/05/24 03:26:09;;;;;;;14.20;10.48;;;;;;;9.54;100.00;93153.03;2570986;22;20028;-80
2023/05/24 03:27:10;;;;;;;13.95;10.15;;;;;;;9.54;100.00;93155.69;2581523;22;20063;-78
2023/05/24 03:28:13;;;;;;;19.08;9.98;;;;;;;9.52;100.00;93155.31;2607185;22;20083;-77
2023/05/24 03:29:14;;;;;;;17.40;9.55;;;;;;;9.63;100.00;93155.16;2608039;22;20006;-80
2023/05/24 03:30:15;;;;;;;12.27;10.02;;;;;;;9.59;100.00;93155.22;2607927;22;19999;-76
2023/05/24 03:31:16;;;;;;;12.90;9.88;;;;;;;9.64;100.00;93158.56;2607492;22;20095;-78
2023/05/24 03:32:17;;;;;;;19.70;9.90;;;;;;;9.69;100.00;93150.84;2594422;22;20435;-80
2023/05/24 03:33:18;;;;;;;19.48;10.25;;;;;;;9.64;100.00;93148.66;2607789;22;20357;-77
2023/05/24 03:34:19;;;;;;;15.82;9.57;;;;;;;9.76;100.00;93152.66;2607259;22;20045;-80
2023/05/24 03:35:20;;;;;;;11.35;9.88;;;;;;;9.82;100.00;93148.34;2581798;22;20063;-78
2023/05/24 03:36:24;;;;;;;15.13;10.43;;;;;;;9.71;100.00;93150.47;2570097;22;20020;-79
2023/05/24 03:37:27;;;;;;;15.38;9.32;;;;;;;9.74;100.00;93154.97;2582570;22;20000;-78
2023/05/24 03:38:32;;;;;;;17.20;10.30;;;;;;;9.72;100.00;93152.72;2594680;22;20101;-80
2023/05/24 03:39:33;;;;;;;16.52;10.10;;;;;;;9.71;100.00;93155.78;2582844;22;20079;-79
2023/05/24 03:40:35;;;;;;;17.70;10.35;;;;;;;9.74;100.00;93154.97;2570027;22;20015;-80
2023/05/24 03:41:36;;;;;;;13.65;9.40;;;;;;;9.47;100.00;93153.13;2581921;22;20099;-78
2023/05/24 03:42:37;;;;;;;15.18;10.73;;;;;;;9.45;100.00;93154.72;2582414;23;20008;-79
2023/05/24 03:43:38;;;;;;;16.45;9.85;;;;;;;9.42;100.00;93156.28;2582697;22;20000;-81
2023/05/24 03:44:39;;;;;;;18.30;9.98;;;;;;;9.37;100.00;93164.75;2595163;22;20011;-78
2023/05/24 03:45:42;;;;;;;13.93;9.30;;;;;;;9.18;100.00;93158.19;2583279;22;20008;-77
2023/05/24 03:46:43;;;;;;;16.58;9.73;;;;;;;9.24;100.00;93163.81;2595272;22;20031;-79
2023/05/24 03:47:44;;;;;;;16.15;10.15;;;;;;;9.26;100.00;93161.47;2595003;22;20027;-79
2023/05/24 03:48:45;;;;;;;13.43;9.88;;;;;;;9.29;100.00;93166.00;2594249;22;20057;-80
2023/05/24 03:49:46;;;;;;;15.13;9.88;;;;;;;9.27;100.00;93165.69;2608302;22;19999;-78
2023/05/24 03:50:50;;;;;;;17.85;9.80;;;;;;;9.27;100.00;93163.00;2608358;22;20006;-81
2023/05/24 03:51:51;;;;;;;16.48;9.80;;;;;;;9.27;100.00;93161.09;2607376;22;19991;-78
2023/05/24 03:52:52;;;;;;;16.30;9.77;;;;;;;9.42;100.00;93161.59;2594434;22;20011;-77
2023/05/24 03:53:52;;;;;;;12.43;8.90;;;;;;;9.46;100.00;93172.97;2595110;22;19999;-77
2023/05/24 03:54:53;;;;;;;14.32;8.80;;;;;;;9.41;100.00;93160.09;2594817;22;20008;-79
2023/05/24 03:55:54;;;;;;;14.85;9.20;;;;;;;9.43;100.00;93167.69;2607287;22;20071;-78
2023/05/24 03:56:55;;;;;;;17.15;8.82;;;;;;;9.28;100.00;93165.25;2607775;22;20003;-77
2023/05/24 03:57:56;;;;;;;13.57;9.43;;;;;;;9.42;100.00;93169.59;2607494;22;20053;-79
2023/05/24 03:58:59;;;;;;;15.93;8.30;;;;;;;9.41;100.00;93170.78;2594172;22;20542;-79
2023/05/24 04:00:00;;;;;;;14.40;8.52;;;;;;;9.34;100.00;93176.22;2607552;22;20082;-77
2023/05/24 04:01:01;;;;;;;16.08;9.18;;;;;;;9.31;100.00;93169.81;2597591;22;20000;-79
2023/05/24 04:02:02;;;;;;;14.85;9.43;;;;;;;9.27;100.00;93177.09;2595468;22;20011;-78
2023/05/24 04:03:05;;;;;;;18.60;10.00;;;;;;;9.33;100.00;93172.81;2595494;22;20004;-79
2023/05/24 04:04:06;;;;;;;15.68;8.85;;;;;;;9.37;100.00;93178.09;2595660;22;20035;-78
2023/05/24 04:05:09;;;;;;;12.07;8.05;;;;;;;9.30;100.00;93186.19;2607686;22;20011;-78
2023/05/24 04:06:10;;;;;;;17.65;9.23;;;;;;;9.26;100.00;93175.59;2608212;22;20007;-80
2023/05/24 04:07:12;;;;;;;15.52;8.40;;;;;;;9.21;100.00;93185.94;2607837;22;20003;-80
2023/05/24 04:08:13;;;;;;;13.82;8.43;;;;;;;9.19;100.00;93174.94;2595278;22;20036;-79
2023/05/24 04:09:15;;;;;;;14.32;8.52;;;;;;;9.47;100.00;93187.06;2582247;22;20411;-80
2023/05/24 04:10:15;;;;;;;15.77;8.50;;;;;;;9.26;100.00;93180.16;2594466;22;20319;-76
2023/05/24 04:11:16;;;;;;;14.52;8.25;;;;;;;9.20;100.00;93177.19;2607807;22;20007;-80
2023/05/24 04:12:17;;;;;;;16.60;9.00;;;;;;;9.19;100.00;93172.28;2594364;22;20027;-78
2023/05/24 04:13:18;;;;;;;12.38;8.27;;;;;;;9.24;100.00;93169.91;2594202;22;20012;-80
2023/05/24 04:14:19;;;;;;;18.98;8.57;;;;;;;9.21;100.00;93177.94;2594974;22;20034;-77
2023/05/24 04:15:22;;;;;;;14.75;7.55;;;;;;;9.17;100.00;93170.00;2594833;22;20361;-80
2023/05/24 04:16:24;;;;;;;13.93;8.02;;;;;;;9.15;100.00;93171.59;2595729;22;20054;-78
2023/05/24 04:17:31;;;;;;;13.27;7.55;;;;;;;9.16;100.00;93170.41;2595101;22;20034;-79
2023/05/24 04:18:36;;;;;;;12.88;8.18;;;;;;;9.00;100.00;93179.81;2606261;22;20007;-78
2023/05/24 04:19:37;;;;;;;13.05;7.40;;;;;;;9.05;100.00;93175.91;2603755;22;20026;-78
2023/05/24 04:20:40;;;;;;;13.55;7.32;;;;;;;9.05;100.00;93174.00;2590658;22;20007;-79
2023/05/24 04:21:41;;;;;;;11.02;6.95;;;;;;;9.05;100.00;93182.00;2592576;22;20506;-77
2023/05/24 04:22:42;;;;;;;10.13;6.78;;;;;;;9.04;100.00;93175.16;2606189;22;20094;-77
2023/05/24 04:23:43;;;;;;;12.13;7.43;;;;;;;9.03;100.00;93175.56;2591421;22;20003;-79
2023/05/24 04:24:44;;;;;;;9.13;6.35;;;;;;;9.19;100.00;93178.38;2577561;22;20053;-78
2023/05/24 04:25:45;;;;;;;16.65;6.80;;;;;;;9.16;100.00;93181.84;2580872;22;20004;-78
2023/05/24 04:26:46;;;;;;;12.65;7.13;;;;;;;9.06;100.00;93175.50;2592769;22;20000;-78
2023/05/24 04:27:47;;;;;;;13.35;7.45;;;;;;;8.98;100.00;93182.09;2593183;22;19999;-79
2023/05/24 04:28:49;;;;;;;16.27;7.28;;;;;;;8.98;100.00;93176.78;2593511;22;20007;-80
2023/05/24 04:29:52;;;;;;;12.55;7.03;;;;;;;8.98;100.00;93182.09;2579144;23;20015;-77
2023/05/24 04:30:53;;;;;;;10.77;6.45;;;;;;;8.98;100.00;93187.44;2592530;22;20010;-78
2023/05/24 04:31:55;;;;;;;14.23;6.65;;;;;;;8.89;100.00;93178.44;2579925;22;20382;-78
2023/05/24 04:32:56;;;;;;;15.95;6.55;;;;;;;8.91;100.00;93178.78;2579916;22;20034;-78
2023/05/24 04:33:58;;;;;;;13.57;6.95;;;;;;;8.91;100.00;93174.22;2581111;22;20008;-79
2023/05/24 04:35:01;;;;;;;11.32;6.88;;;;;;;8.96;100.00;93176.44;2578483;22;20012;-77
2023/05/24 04:36:03;;;;;;;14.40;6.55;;;;;;;9.03;100.00;93180.88;2594700;22;20000;-78
2023/05/24 04:37:04;;;;;;;10.77;6.75;;;;;;;9.04;100.00;93177.06;2594517;22;20394;-80
2023/05/24 04:38:06;;;;;;;16.30;7.03;;;;;;;9.06;100.00;93178.19;2586686;22;20383;-77
2023/05/24 04:39:07;;;;;;;9.52;6.75;;;;;;;9.06;100.00;93169.44;2598373;22;20369;-76
2023/05/24 04:40:09;;;;;;;9.70;6.75;;;;;;;9.07;100.00;93189.59;2598746;22;20064;-78
2023/05/24 04:41:11;;;;;;;9.15;6.55;;;;;;;9.05;100.00;93179.34;2596723;22;20004;-79
2023/05/24 04:42:12;;;;;;;12.55;6.57;;;;;;;9.05;100.00;93184.66;2581511;22;20004;-79
2023/05/24 04:43:13;;;;;;;9.82;6.35;;;;;;;9.07;100.00;93178.94;2593464;22;20018;-79
2023/05/24 04:44:20;;;;;;;9.85;6.35;;;;;;;8.98;100.00;93176.78;2593585;22;20014;-79
2023/05/24 04:45:21;;;;;;;14.13;6.78;;;;;;;9.18;100.00;93181.44;2592504;22;20634;-81
2023/05/24 04:46:22;;;;;;;16.33;6.55;;;;;;;9.20;100.00;93177.19;2605939;22;20073;-80
2023/05/24 04:47:23;;;;;;;11.70;6.07;;;;;;;9.20;100.00;93173.78;2593521;22;20011;-81
2023/05/24 04:48:25;;;;;;;10.43;6.20;;;;;;;9.22;100.00;93174.91;2592906;22;20027;-78
2023/05/24 04:49:26;;;;;;;13.57;6.15;;;;;;;9.19;100.00;93167.69;2606952;22;20078;-79
2023/05/24 04:50:27;;;;;;;9.48;5.88;;;;;;;9.28;100.00;93169.84;2593197;22;20008;-78
2023/05/24 04:51:28;;;;;;;11.75;6.18;;;;;;;9.20;100.00;93166.53;2580819;22;20019;-80